sensor_id;sensor_type;location;lat;lon;timestamp;P1;durP1;ratioP1;P2;durP2;ratioP2
76731;SDS011;65656;51.130;13.658;2023-06-22T00:01:49;16.38;;;14.88;;
76731;SDS011;65656;51.130;13.658;2023-06-22T00:05:51;15.73;;;13.05;;
76731;SDS011;65656;51.130;13.658;2023-06-22T00:09:54;14.43;;;10.23;;
76731;SDS011;65656;51.130;13.658;2023-06-22T00:13:56;14.38;;;12.95;;
76731;SDS011;65656;51.130;13.658;2023-06-22T00:17:57;13.70;;;11.43;;
76731;SDS011;65656;51.130;13.658;2023-06-22T00:21:59;14.13;;;12.20;;
76731;SDS011;65656;51.130;13.658;2023-06-22T00:26:02;14.00;;;10.65;;
76731;SDS011;65656;51.130;13.658;2023-06-22T00:30:04;14.50;;;13.00;;
76731;SDS011;65656;51.130;13.658;2023-06-22T00:34:06;18.33;;;16.63;;
76731;SDS011;65656;51.130;13.658;2023-06-22T00:38:07;15.30;;;13.75;;
76731;SDS011;65656;51.130;13.658;2023-06-22T00:42:10;17.23;;;15.57;;
76731;SDS011;65656;51.130;13.658;2023-06-22T00:46:12;14.45;;;10.85;;
76731;SDS011;65656;51.130;13.658;2023-06-22T00:50:15;15.88;;;14.00;;
76731;SDS011;65656;51.130;13.658;2023-06-22T00:54:20;16.98;;;15.00;;
76731;SDS011;65656;51.130;13.658;2023-06-22T00:58:24;17.15;;;15.73;;
76731;SDS011;65656;51.130;13.658;2023-06-22T01:02:25;14.77;;;13.20;;
76731;SDS011;65656;51.130;13.658;2023-06-22T01:06:28;18.02;;;16.33;;
76731;SDS011;65656;51.130;13.658;2023-06-22T01:10:37;17.98;;;16.48;;
76731;SDS011;65656;51.130;13.658;2023-06-22T01:14:47;17.42;;;15.68;;
76731;SDS011;65656;51.130;13.658;2023-06-22T01:18:55;17.50;;;15.88;;
76731;SDS011;65656;51.130;13.658;2023-06-22T01:23:02;21.40;;;19.40;;
76731;SDS011;65656;51.130;13.658;2023-06-22T01:27:13;21.25;;;19.55;;
76731;SDS011;65656;51.130;13.658;2023-06-22T01:31:28;17.95;;;16.33;;
76731;SDS011;65656;51.130;13.658;2023-06-22T01:35:32;22.13;;;20.23;;
76731;SDS011;65656;51.130;13.658;2023-06-22T01:39:34;19.48;;;17.77;;
76731;SDS011;65656;51.130;13.658;2023-06-22T01:43:36;16.92;;;14.13;;
76731;SDS011;65656;51.130;13.658;2023-06-22T01:47:39;20.15;;;18.45;;
76731;SDS011;65656;51.130;13.658;2023-06-22T01:51:41;17.73;;;15.90;;
76731;SDS011;65656;51.130;13.658;2023-06-22T01:55:43;18.25;;;16.45;;
76731;SDS011;65656;51.130;13.658;2023-06-22T01:59:47;20.33;;;18.63;;
76731;SDS011;65656;51.130;13.658;2023-06-22T02:04:01;16.27;;;14.73;;
76731;SDS011;65656;51.130;13.658;2023-06-22T02:08:08;18.27;;;16.67;;
76731;SDS011;65656;51.130;13.658;2023-06-22T02:12:12;19.08;;;17.17;;
76731;SDS011;65656;51.130;13.658;2023-06-22T02:16:18;16.15;;;14.63;;
76731;SDS011;65656;51.130;13.658;2023-06-22T02:20:21;19.40;;;17.58;;
76731;SDS011;65656;51.130;13.658;2023-06-22T02:24:25;16.55;;;15.00;;
76731;SDS011;65656;51.130;13.658;2023-06-22T02:28:26;20.02;;;18.08;;
76731;SDS011;65656;51.130;13.658;2023-06-22T02:32:28;18.00;;;16.40;;
76731;SDS011;65656;51.130;13.658;2023-06-22T02:36:30;16.52;;;15.02;;
76731;SDS011;65656;51.130;13.658;2023-06-22T02:40:32;19.35;;;17.60;;
76731;SDS011;65656;51.130;13.658;2023-06-22T02:44:33;17.25;;;15.52;;
76731;SDS011;65656;51.130;13.658;2023-06-22T02:48:35;14.32;;;12.77;;
76731;SDS011;65656;51.130;13.658;2023-06-22T02:52:38;16.30;;;14.80;;
76731;SDS011;65656;51.130;13.658;2023-06-22T02:56:39;19.95;;;18.25;;
76731;SDS011;65656;51.130;13.658;2023-06-22T03:00:40;19.40;;;17.73;;
76731;SDS011;65656;51.130;13.658;2023-06-22T03:04:42;18.33;;;16.73;;
76731;SDS011;65656;51.130;13.658;2023-06-22T03:08:45;13.40;;;12.05;;
76731;SDS011;65656;51.130;13.658;2023-06-22T03:12:46;20.45;;;18.65;;
76731;SDS011;65656;51.130;13.658;2023-06-22T03:16:48;20.15;;;18.10;;
76731;SDS011;65656;51.130;13.658;2023-06-22T03:20:49;19.98;;;18.17;;
76731;SDS011;65656;51.130;13.658;2023-06-22T03:24:52;22.05;;;20.05;;
76731;SDS011;65656;51.130;13.658;2023-06-22T03:28:54;19.20;;;16.98;;
76731;SDS011;65656;51.130;13.658;2023-06-22T03:32:55;18.65;;;15.88;;
76731;SDS011;65656;51.130;13.658;2023-06-22T03:36:57;22.10;;;20.17;;
76731;SDS011;65656;51.130;13.658;2023-06-22T03:41:00;24.13;;;21.98;;
76731;SDS011;65656;51.130;13.658;2023-06-22T03:45:01;21.60;;;19.70;;
76731;SDS011;65656;51.130;13.658;2023-06-22T03:49:03;24.20;;;21.75;;
76731;SDS011;65656;51.130;13.658;2023-06-22T03:53:05;20.73;;;18.65;;
76731;SDS011;65656;51.130;13.658;2023-06-22T03:57:08;21.63;;;19.63;;
76731;SDS011;65656;51.130;13.658;2023-06-22T04:01:10;21.90;;;19.88;;
76731;SDS011;65656;51.130;13.658;2023-06-22T04:05:11;20.10;;;18.05;;
76731;SDS011;65656;51.130;13.658;2023-06-22T04:09:13;23.35;;;21.25;;
76731;SDS011;65656;51.130;13.658;2023-06-22T04:13:16;25.67;;;23.27;;
76731;SDS011;65656;51.130;13.658;2023-06-22T04:17:17;22.85;;;20.75;;
76731;SDS011;65656;51.130;13.658;2023-06-22T04:21:19;25.02;;;22.58;;
76731;SDS011;65656;51.130;13.658;2023-06-22T04:25:20;23.88;;;20.98;;
76731;SDS011;65656;51.130;13.658;2023-06-22T04:29:24;23.90;;;21.70;;
76731;SDS011;65656;51.130;13.658;2023-06-22T04:33:25;24.95;;;22.20;;
76731;SDS011;65656;51.130;13.658;2023-06-22T04:37:27;36.55;;;33.50;;
76731;SDS011;65656;51.130;13.658;2023-06-22T04:41:28;22.00;;;19.95;;
76731;SDS011;65656;51.130;13.658;2023-06-22T04:45:31;25.30;;;23.05;;
76731;SDS011;65656;51.130;13.658;2023-06-22T04:49:33;19.40;;;17.65;;
76731;SDS011;65656;51.130;13.658;2023-06-22T04:53:35;18.90;;;17.10;;
76731;SDS011;65656;51.130;13.658;2023-06-22T04:57:37;19.50;;;17.80;;
76731;SDS011;65656;51.130;13.658;2023-06-22T05:01:40;14.23;;;12.80;;
76731;SDS011;65656;51.130;13.658;2023-06-22T05:05:41;16.92;;;15.43;;
76731;SDS011;65656;51.130;13.658;2023-06-22T05:09:43;18.67;;;17.08;;
76731;SDS011;65656;51.130;13.658;2023-06-22T05:13:44;16.58;;;14.93;;
76731;SDS011;65656;51.130;13.658;2023-06-22T05:17:47;16.23;;;14.73;;
76731;SDS011;65656;51.130;13.658;2023-06-22T05:21:48;17.45;;;15.90;;
76731;SDS011;65656;51.130;13.658;2023-06-22T05:25:51;19.13;;;17.25;;
76731;SDS011;65656;51.130;13.658;2023-06-22T05:29:52;17.83;;;16.15;;
76731;SDS011;65656;51.130;13.658;2023-06-22T05:33:55;14.65;;;12.32;;
76731;SDS011;65656;51.130;13.658;2023-06-22T05:37:57;15.98;;;14.48;;
76731;SDS011;65656;51.130;13.658;2023-06-22T05:41:58;17.88;;;16.30;;
76731;SDS011;65656;51.130;13.658;2023-06-22T05:46:00;17.02;;;15.52;;
76731;SDS011;65656;51.130;13.658;2023-06-22T05:50:04;19.35;;;17.75;;
76731;SDS011;65656;51.130;13.658;2023-06-22T05:54:06;14.43;;;13.02;;
76731;SDS011;65656;51.130;13.658;2023-06-22T05:58:08;14.73;;;13.25;;
76731;SDS011;65656;51.130;13.658;2023-06-22T06:02:09;17.33;;;15.88;;
76731;SDS011;65656;51.130;13.658;2023-06-22T06:06:12;18.55;;;17.05;;
76731;SDS011;65656;51.130;13.658;2023-06-22T06:10:14;16.80;;;15.40;;
76731;SDS011;65656;51.130;13.658;2023-06-22T06:14:15;17.33;;;15.73;;
76731;SDS011;65656;51.130;13.658;2023-06-22T06:18:17;15.60;;;14.18;;
76731;SDS011;65656;51.130;13.658;2023-06-22T06:22:19;14.60;;;13.30;;
76731;SDS011;65656;51.130;13.658;2023-06-22T06:26:21;16.17;;;14.88;;
76731;SDS011;65656;51.130;13.658;2023-06-22T06:30:22;16.92;;;15.48;;
76731;SDS011;65656;51.130;13.658;2023-06-22T06:34:24;17.00;;;15.38;;
76731;SDS011;65656;51.130;13.658;2023-06-22T06:38:27;17.30;;;15.93;;
76731;SDS011;65656;51.130;13.658;2023-06-22T06:42:28;14.68;;;13.27;;
76731;SDS011;65656;51.130;13.658;2023-06-22T06:46:30;16.27;;;14.68;;
76731;SDS011;65656;51.130;13.658;2023-06-22T06:50:31;18.08;;;16.23;;
76731;SDS011;65656;51.130;13.658;2023-06-22T06:54:35;16.63;;;15.20;;
76731;SDS011;65656;51.130;13.658;2023-06-22T06:58:36;15.55;;;14.15;;
76731;SDS011;65656;51.130;13.658;2023-06-22T07:02:38;15.05;;;13.73;;
76731;SDS011;65656;51.130;13.658;2023-06-22T07:06:40;16.38;;;15.07;;
76731;SDS011;65656;51.130;13.658;2023-06-22T07:10:42;14.45;;;13.15;;
76731;SDS011;65656;51.130;13.658;2023-06-22T07:14:44;16.73;;;15.32;;
76731;SDS011;65656;51.130;13.658;2023-06-22T07:18:45;15.95;;;14.35;;
76731;SDS011;65656;51.130;13.658;2023-06-22T07:22:47;15.57;;;14.18;;
76731;SDS011;65656;51.130;13.658;2023-06-22T07:26:50;16.65;;;15.15;;
76731;SDS011;65656;51.130;13.658;2023-06-22T07:30:52;16.25;;;14.77;;
76731;SDS011;65656;51.130;13.658;2023-06-22T07:34:53;16.38;;;14.98;;
76731;SDS011;65656;51.130;13.658;2023-06-22T07:38:55;15.55;;;14.23;;
76731;SDS011;65656;51.130;13.658;2023-06-22T07:42:58;15.38;;;14.07;;
76731;SDS011;65656;51.130;13.658;2023-06-22T07:46:59;16.70;;;15.20;;
76731;SDS011;65656;51.130;13.658;2023-06-22T07:51:01;16.23;;;14.82;;
76731;SDS011;65656;51.130;13.658;2023-06-22T07:55:02;12.70;;;10.27;;
76731;SDS011;65656;51.130;13.658;2023-06-22T07:59:06;15.82;;;14.43;;
76731;SDS011;65656;51.130;13.658;2023-06-22T08:03:07;13.93;;;12.52;;
76731;SDS011;65656;51.130;13.658;2023-06-22T08:07:09;14.80;;;13.40;;
76731;SDS011;65656;51.130;13.658;2023-06-22T08:11:10;15.77;;;14.48;;
76731;SDS011;65656;51.130;13.658;2023-06-22T08:15:13;13.98;;;12.68;;
76731;SDS011;65656;51.130;13.658;2023-06-22T08:19:15;14.70;;;13.38;;
76731;SDS011;65656;51.130;13.658;2023-06-22T08:23:16;14.32;;;12.93;;
76731;SDS011;65656;51.130;13.658;2023-06-22T08:27:18;15.70;;;14.20;;
76731;SDS011;65656;51.130;13.658;2023-06-22T08:31:21;13.75;;;12.55;;
76731;SDS011;65656;51.130;13.658;2023-06-22T08:35:22;14.85;;;13.48;;
76731;SDS011;65656;51.130;13.658;2023-06-22T08:39:24;15.63;;;14.32;;
76731;SDS011;65656;51.130;13.658;2023-06-22T08:43:26;16.50;;;15.20;;
76731;SDS011;65656;51.130;13.658;2023-06-22T08:47:28;12.20;;;11.10;;
76731;SDS011;65656;51.130;13.658;2023-06-22T08:51:30;13.25;;;12.00;;
76731;SDS011;65656;51.130;13.658;2023-06-22T08:55:31;14.27;;;13.02;;
76731;SDS011;65656;51.130;13.658;2023-06-22T08:59:33;13.65;;;12.52;;
76731;SDS011;65656;51.130;13.658;2023-06-22T09:03:36;18.05;;;16.60;;
76731;SDS011;65656;51.130;13.658;2023-06-22T09:07:38;11.00;;;9.60;;
76731;SDS011;65656;51.130;13.658;2023-06-22T09:11:39;15.18;;;13.73;;
76731;SDS011;65656;51.130;13.658;2023-06-22T09:15:41;14.02;;;12.80;;
76731;SDS011;65656;51.130;13.658;2023-06-22T09:19:43;14.07;;;12.88;;
76731;SDS011;65656;51.130;13.658;2023-06-22T09:23:45;16.80;;;15.50;;
76731;SDS011;65656;51.130;13.658;2023-06-22T09:27:46;14.60;;;13.10;;
76731;SDS011;65656;51.130;13.658;2023-06-22T09:31:48;13.82;;;12.52;;
76731;SDS011;65656;51.130;13.658;2023-06-22T09:35:51;12.50;;;11.27;;
76731;SDS011;65656;51.130;13.658;2023-06-22T09:39:52;8.95;;;8.00;;
76731;SDS011;65656;51.130;13.658;2023-06-22T09:43:54;12.85;;;11.75;;
76731;SDS011;65656;51.130;13.658;2023-06-22T09:47:57;11.48;;;8.05;;
76731;SDS011;65656;51.130;13.658;2023-06-22T09:52:00;13.70;;;12.57;;
76731;SDS011;65656;51.130;13.658;2023-06-22T09:56:01;11.38;;;10.38;;
76731;SDS011;65656;51.130;13.658;2023-06-22T10:00:03;12.10;;;10.90;;
76731;SDS011;65656;51.130;13.658;2023-06-22T10:04:05;14.65;;;13.45;;
76731;SDS011;65656;51.130;13.658;2023-06-22T10:08:08;13.07;;;11.85;;
76731;SDS011;65656;51.130;13.658;2023-06-22T10:12:10;12.48;;;9.98;;
76731;SDS011;65656;51.130;13.658;2023-06-22T10:16:11;12.98;;;11.75;;
76731;SDS011;65656;51.130;13.658;2023-06-22T10:20:13;10.38;;;9.48;;
76731;SDS011;65656;51.130;13.658;2023-06-22T10:24:16;11.82;;;10.73;;
76731;SDS011;65656;51.130;13.658;2023-06-22T10:28:18;11.10;;;10.02;;
76731;SDS011;65656;51.130;13.658;2023-06-22T10:32:19;12.43;;;11.02;;
76731;SDS011;65656;51.130;13.658;2023-06-22T10:36:21;12.45;;;11.35;;
76731;SDS011;65656;51.130;13.658;2023-06-22T10:40:24;12.85;;;11.63;;
76731;SDS011;65656;51.130;13.658;2023-06-22T10:44:26;12.05;;;10.95;;
76731;SDS011;65656;51.130;13.658;2023-06-22T10:48:27;11.38;;;10.27;;
76731;SDS011;65656;51.130;13.658;2023-06-22T10:52:29;9.48;;;8.60;;
76731;SDS011;65656;51.130;13.658;2023-06-22T10:56:31;9.80;;;8.90;;
76731;SDS011;65656;51.130;13.658;2023-06-22T11:00:33;10.80;;;8.10;;
76731;SDS011;65656;51.130;13.658;2023-06-22T11:04:34;13.02;;;11.93;;
76731;SDS011;65656;51.130;13.658;2023-06-22T11:08:36;11.73;;;10.07;;
76731;SDS011;65656;51.130;13.658;2023-06-22T11:12:39;12.68;;;11.65;;
76731;SDS011;65656;51.130;13.658;2023-06-22T11:16:40;12.43;;;11.43;;
76731;SDS011;65656;51.130;13.658;2023-06-22T11:20:42;12.27;;;11.07;;
76731;SDS011;65656;51.130;13.658;2023-06-22T11:24:44;9.15;;;7.32;;
76731;SDS011;65656;51.130;13.658;2023-06-22T11:28:46;11.82;;;10.73;;
76731;SDS011;65656;51.130;13.658;2023-06-22T11:32:48;9.80;;;8.80;;
76731;SDS011;65656;51.130;13.658;2023-06-22T11:36:50;13.52;;;11.10;;
76731;SDS011;65656;51.130;13.658;2023-06-22T11:40:51;12.15;;;11.15;;
76731;SDS011;65656;51.130;13.658;2023-06-22T11:44:54;12.70;;;11.57;;
76731;SDS011;65656;51.130;13.658;2023-06-22T11:48:57;10.63;;;9.38;;
76731;SDS011;65656;51.130;13.658;2023-06-22T11:52:59;10.52;;;7.63;;
76731;SDS011;65656;51.130;13.658;2023-06-22T11:57:00;10.90;;;9.85;;
76731;SDS011;65656;51.130;13.658;2023-06-22T12:01:03;14.02;;;10.88;;
76731;SDS011;65656;51.130;13.658;2023-06-22T12:05:05;12.63;;;11.40;;
76731;SDS011;65656;51.130;13.658;2023-06-22T12:09:07;11.38;;;10.38;;
76731;SDS011;65656;51.130;13.658;2023-06-22T12:13:08;14.40;;;13.27;;
76731;SDS011;65656;51.130;13.658;2023-06-22T12:17:11;12.82;;;11.52;;
76731;SDS011;65656;51.130;13.658;2023-06-22T12:21:13;10.85;;;9.82;;
76731;SDS011;65656;51.130;13.658;2023-06-22T12:25:14;12.55;;;11.55;;
76731;SDS011;65656;51.130;13.658;2023-06-22T12:29:16;10.63;;;9.57;;
76731;SDS011;65656;51.130;13.658;2023-06-22T12:33:18;11.32;;;10.23;;
76731;SDS011;65656;51.130;13.658;2023-06-22T12:37:20;11.85;;;10.88;;
76731;SDS011;65656;51.130;13.658;2023-06-22T12:41:22;11.70;;;10.60;;
76731;SDS011;65656;51.130;13.658;2023-06-22T12:45:23;12.55;;;11.43;;
76731;SDS011;65656;51.130;13.658;2023-06-22T12:49:26;9.48;;;8.60;;
76731;SDS011;65656;51.130;13.658;2023-06-22T12:53:28;13.25;;;12.15;;
76731;SDS011;65656;51.130;13.658;2023-06-22T12:57:29;9.77;;;8.85;;
76731;SDS011;65656;51.130;13.658;2023-06-22T13:01:31;10.35;;;9.32;;
76731;SDS011;65656;51.130;13.658;2023-06-22T13:05:34;9.35;;;8.48;;
76731;SDS011;65656;51.130;13.658;2023-06-22T13:09:36;8.15;;;7.38;;
76731;SDS011;65656;51.130;13.658;2023-06-22T13:13:38;9.32;;;7.25;;
76731;SDS011;65656;51.130;13.658;2023-06-22T13:17:40;10.43;;;9.52;;
76731;SDS011;65656;51.130;13.658;2023-06-22T13:21:42;10.63;;;9.68;;
76731;SDS011;65656;51.130;13.658;2023-06-22T13:25:44;11.07;;;10.00;;
76731;SDS011;65656;51.130;13.658;2023-06-22T13:29:45;8.88;;;8.02;;
76731;SDS011;65656;51.130;13.658;2023-06-22T13:33:47;10.43;;;9.52;;
76731;SDS011;65656;51.130;13.658;2023-06-22T13:37:50;9.45;;;8.50;;
76731;SDS011;65656;51.130;13.658;2023-06-22T13:41:51;9.15;;;7.45;;
76731;SDS011;65656;51.130;13.658;2023-06-22T13:45:53;12.40;;;8.27;;
76731;SDS011;65656;51.130;13.658;2023-06-22T13:49:54;9.65;;;8.82;;
76731;SDS011;65656;51.130;13.658;2023-06-22T13:53:57;10.75;;;9.75;;
76731;SDS011;65656;51.130;13.658;2023-06-22T13:57:59;12.95;;;11.73;;
76731;SDS011;65656;51.130;13.658;2023-06-22T14:02:01;9.73;;;8.68;;
76731;SDS011;65656;51.130;13.658;2023-06-22T14:06:02;8.90;;;7.70;;
76731;SDS011;65656;51.130;13.658;2023-06-22T14:10:05;7.32;;;6.60;;
76731;SDS011;65656;51.130;13.658;2023-06-22T14:14:07;10.65;;;9.23;;
76731;SDS011;65656;51.130;13.658;2023-06-22T14:18:09;8.55;;;7.43;;
76731;SDS011;65656;51.130;13.658;2023-06-22T14:22:10;9.25;;;7.63;;
76731;SDS011;65656;51.130;13.658;2023-06-22T14:26:13;11.00;;;10.10;;
76731;SDS011;65656;51.130;13.658;2023-06-22T14:30:15;9.00;;;8.10;;
76731;SDS011;65656;51.130;13.658;2023-06-22T14:34:16;14.05;;;12.95;;
76731;SDS011;65656;51.130;13.658;2023-06-22T14:38:18;10.23;;;8.70;;
76731;SDS011;65656;51.130;13.658;2023-06-22T14:42:20;10.75;;;7.93;;
76731;SDS011;65656;51.130;13.658;2023-06-22T14:46:22;10.50;;;8.50;;
76731;SDS011;65656;51.130;13.658;2023-06-22T14:50:24;11.00;;;10.10;;
76731;SDS011;65656;51.130;13.658;2023-06-22T14:54:25;13.23;;;12.13;;
76731;SDS011;65656;51.130;13.658;2023-06-22T14:58:28;8.65;;;7.85;;
76731;SDS011;65656;51.130;13.658;2023-06-22T15:02:29;13.07;;;11.82;;
76731;SDS011;65656;51.130;13.658;2023-06-22T15:06:31;12.43;;;11.32;;
76731;SDS011;65656;51.130;13.658;2023-06-22T15:10:32;10.75;;;9.85;;
76731;SDS011;65656;51.130;13.658;2023-06-22T15:14:35;11.18;;;8.38;;
76731;SDS011;65656;51.130;13.658;2023-06-22T15:18:37;12.27;;;11.07;;
76731;SDS011;65656;51.130;13.658;2023-06-22T15:22:38;8.60;;;7.80;;
76731;SDS011;65656;51.130;13.658;2023-06-22T15:26:40;15.02;;;13.55;;
76731;SDS011;65656;51.130;13.658;2023-06-22T15:30:43;10.27;;;9.13;;
76731;SDS011;65656;51.130;13.658;2023-06-22T15:34:47;10.10;;;9.05;;
76731;SDS011;65656;51.130;13.658;2023-06-22T15:38:49;12.73;;;11.60;;
76731;SDS011;65656;51.130;13.658;2023-06-22T15:42:50;13.77;;;12.63;;
76731;SDS011;65656;51.130;13.658;2023-06-22T15:46:55;10.68;;;9.68;;
76731;SDS011;65656;51.130;13.658;2023-06-22T15:50:57;11.43;;;10.00;;
76731;SDS011;65656;51.130;13.658;2023-06-22T15:54:58;13.93;;;12.82;;
76731;SDS011;65656;51.130;13.658;2023-06-22T15:59:00;10.63;;;9.55;;
76731;SDS011;65656;51.130;13.658;2023-06-22T16:03:02;15.18;;;13.93;;
76731;SDS011;65656;51.130;13.658;2023-06-22T16:07:04;13.93;;;10.57;;
76731;SDS011;65656;51.130;13.658;2023-06-22T16:11:06;13.18;;;11.90;;
76731;SDS011;65656;51.130;13.658;2023-06-22T16:15:08;12.07;;;9.85;;
76731;SDS011;65656;51.130;13.658;2023-06-22T16:19:11;10.32;;;9.30;;
76731;SDS011;65656;51.130;13.658;2023-06-22T16:23:12;10.80;;;9.70;;
76731;SDS011;65656;51.130;13.658;2023-06-22T16:27:14;10.65;;;9.65;;
76731;SDS011;65656;51.130;13.658;2023-06-22T16:31:15;10.68;;;9.68;;
76731;SDS011;65656;51.130;13.658;2023-06-22T16:35:18;12.93;;;11.85;;
76731;SDS011;65656;51.130;13.658;2023-06-22T16:39:20;12.02;;;10.85;;
76731;SDS011;65656;51.130;13.658;2023-06-22T16:43:21;11.07;;;9.68;;
76731;SDS011;65656;51.130;13.658;2023-06-22T16:47:23;10.85;;;9.75;;
76731;SDS011;65656;51.130;13.658;2023-06-22T16:51:26;10.88;;;9.65;;
76731;SDS011;65656;51.130;13.658;2023-06-22T16:55:27;15.90;;;14.45;;
76731;SDS011;65656;51.130;13.658;2023-06-22T16:59:30;13.48;;;11.23;;
76731;SDS011;65656;51.130;13.658;2023-06-22T17:03:33;14.65;;;13.35;;
76731;SDS011;65656;51.130;13.658;2023-06-22T17:07:37;15.35;;;13.85;;
76731;SDS011;65656;51.130;13.658;2023-06-22T17:11:40;14.60;;;13.27;;
76731;SDS011;65656;51.130;13.658;2023-06-22T17:15:43;13.13;;;11.93;;
76731;SDS011;65656;51.130;13.658;2023-06-22T17:19:44;11.38;;;10.30;;
76731;SDS011;65656;51.130;13.658;2023-06-22T17:23:48;14.23;;;13.00;;
76731;SDS011;65656;51.130;13.658;2023-06-22T17:27:49;14.90;;;13.70;;
76731;SDS011;65656;51.130;13.658;2023-06-22T17:31:51;14.55;;;13.20;;
76731;SDS011;65656;51.130;13.658;2023-06-22T17:35:56;14.25;;;12.88;;
76731;SDS011;65656;51.130;13.658;2023-06-22T17:39:59;14.52;;;13.13;;
76731;SDS011;65656;51.130;13.658;2023-06-22T17:44:00;13.88;;;11.48;;
76731;SDS011;65656;51.130;13.658;2023-06-22T17:48:05;19.10;;;17.30;;
76731;SDS011;65656;51.130;13.658;2023-06-22T17:52:15;16.00;;;14.45;;
76731;SDS011;65656;51.130;13.658;2023-06-22T17:56:18;16.20;;;14.65;;
76731;SDS011;65656;51.130;13.658;2023-06-22T18:00:20;16.02;;;14.50;;
76731;SDS011;65656;51.130;13.658;2023-06-22T18:04:21;15.70;;;14.40;;
76731;SDS011;65656;51.130;13.658;2023-06-22T18:08:25;14.35;;;13.15;;
76731;SDS011;65656;51.130;13.658;2023-06-22T18:12:28;18.20;;;16.38;;
76731;SDS011;65656;51.130;13.658;2023-06-22T18:16:31;16.75;;;15.45;;
76731;SDS011;65656;51.130;13.658;2023-06-22T18:20:33;17.27;;;15.68;;
76731;SDS011;65656;51.130;13.658;2023-06-22T18:24:35;20.30;;;18.33;;
76731;SDS011;65656;51.130;13.658;2023-06-22T18:28:40;17.20;;;15.50;;
76731;SDS011;65656;51.130;13.658;2023-06-22T18:32:42;17.27;;;15.85;;
76731;SDS011;65656;51.130;13.658;2023-06-22T18:36:45;16.73;;;15.23;;
76731;SDS011;65656;51.130;13.658;2023-06-22T18:40:50;18.70;;;17.20;;
76731;SDS011;65656;51.130;13.658;2023-06-22T18:44:53;17.15;;;15.52;;
76731;SDS011;65656;51.130;13.658;2023-06-22T18:48:57;19.80;;;17.92;;
76731;SDS011;65656;51.130;13.658;2023-06-22T18:53:03;18.80;;;17.23;;
76731;SDS011;65656;51.130;13.658;2023-06-22T18:57:12;17.90;;;16.40;;
76731;SDS011;65656;51.130;13.658;2023-06-22T19:01:16;20.38;;;18.50;;
76731;SDS011;65656;51.130;13.658;2023-06-22T19:05:19;17.13;;;15.73;;
76731;SDS011;65656;51.130;13.658;2023-06-22T19:09:38;18.63;;;16.80;;
76731;SDS011;65656;51.130;13.658;2023-06-22T19:13:45;16.15;;;14.40;;
76731;SDS011;65656;51.130;13.658;2023-06-22T19:17:48;17.33;;;15.82;;
76731;SDS011;65656;51.130;13.658;2023-06-22T19:21:57;19.58;;;17.77;;
76731;SDS011;65656;51.130;13.658;2023-06-22T19:26:00;16.40;;;14.95;;
76731;SDS011;65656;51.130;13.658;2023-06-22T19:30:02;17.33;;;15.52;;
76731;SDS011;65656;51.130;13.658;2023-06-22T19:34:08;18.48;;;16.77;;
76731;SDS011;65656;51.130;13.658;2023-06-22T19:38:10;20.55;;;18.45;;
76731;SDS011;65656;51.130;13.658;2023-06-22T19:42:11;19.38;;;17.65;;
76731;SDS011;65656;51.130;13.658;2023-06-22T19:46:13;17.50;;;15.80;;
76731;SDS011;65656;51.130;13.658;2023-06-22T19:50:15;19.00;;;17.35;;
76731;SDS011;65656;51.130;13.658;2023-06-22T19:54:17;17.98;;;16.08;;
76731;SDS011;65656;51.130;13.658;2023-06-22T19:58:19;18.77;;;17.20;;
76731;SDS011;65656;51.130;13.658;2023-06-22T20:02:24;18.75;;;16.98;;
76731;SDS011;65656;51.130;13.658;2023-06-22T20:06:28;12.52;;;11.23;;
76731;SDS011;65656;51.130;13.658;2023-06-22T20:10:33;18.95;;;17.33;;
76731;SDS011;65656;51.130;13.658;2023-06-22T20:14:37;21.13;;;19.30;;
76731;SDS011;65656;51.130;13.658;2023-06-22T20:18:39;20.10;;;18.42;;
76731;SDS011;65656;51.130;13.658;2023-06-22T20:22:42;19.55;;;17.83;;
76731;SDS011;65656;51.130;13.658;2023-06-22T20:26:44;18.88;;;17.08;;
76731;SDS011;65656;51.130;13.658;2023-06-22T20:31:00;20.98;;;19.27;;
76731;SDS011;65656;51.130;13.658;2023-06-22T20:35:03;18.77;;;16.92;;
76731;SDS011;65656;51.130;13.658;2023-06-22T20:39:06;20.05;;;18.08;;
76731;SDS011;65656;51.130;13.658;2023-06-22T20:43:08;20.27;;;18.45;;
76731;SDS011;65656;51.130;13.658;2023-06-22T20:47:09;19.27;;;17.58;;
76731;SDS011;65656;51.130;13.658;2023-06-22T20:51:11;17.92;;;16.48;;
76731;SDS011;65656;51.130;13.658;2023-06-22T20:55:13;20.92;;;19.33;;
76731;SDS011;65656;51.130;13.658;2023-06-22T20:59:15;23.83;;;22.05;;
76731;SDS011;65656;51.130;13.658;2023-06-22T21:03:16;18.63;;;17.13;;
76731;SDS011;65656;51.130;13.658;2023-06-22T21:07:18;18.50;;;16.92;;
76731;SDS011;65656;51.130;13.658;2023-06-22T21:11:21;18.73;;;17.23;;
76731;SDS011;65656;51.130;13.658;2023-06-22T21:15:22;19.83;;;17.92;;
76731;SDS011;65656;51.130;13.658;2023-06-22T21:19:24;18.73;;;17.13;;
76731;SDS011;65656;51.130;13.658;2023-06-22T21:23:25;19.73;;;18.10;;
76731;SDS011;65656;51.130;13.658;2023-06-22T21:27:28;19.67;;;18.10;;
76731;SDS011;65656;51.130;13.658;2023-06-22T21:31:30;16.17;;;14.60;;
76731;SDS011;65656;51.130;13.658;2023-06-22T21:35:32;19.52;;;17.88;;
76731;SDS011;65656;51.130;13.658;2023-06-22T21:39:34;19.15;;;17.35;;
76731;SDS011;65656;51.130;13.658;2023-06-22T21:43:37;18.27;;;16.73;;
76731;SDS011;65656;51.130;13.658;2023-06-22T21:47:38;28.40;;;20.25;;
76731;SDS011;65656;51.130;13.658;2023-06-22T21:51:40;24.88;;;22.48;;
76731;SDS011;65656;51.130;13.658;2023-06-22T21:55:41;24.08;;;21.88;;
76731;SDS011;65656;51.130;13.658;2023-06-22T21:59:44;23.25;;;20.88;;
76731;SDS011;65656;51.130;13.658;2023-06-22T22:03:45;26.40;;;23.90;;
76731;SDS011;65656;51.130;13.658;2023-06-22T22:07:47;32.33;;;29.80;;
76731;SDS011;65656;51.130;13.658;2023-06-22T22:11:48;26.00;;;23.42;;
76731;SDS011;65656;51.130;13.658;2023-06-22T22:15:51;27.90;;;25.45;;
76731;SDS011;65656;51.130;13.658;2023-06-22T22:19:53;27.83;;;25.23;;
76731;SDS011;65656;51.130;13.658;2023-06-22T22:23:54;27.35;;;24.90;;
76731;SDS011;65656;51.130;13.658;2023-06-22T22:27:56;29.15;;;26.45;;
76731;SDS011;65656;51.130;13.658;2023-06-22T22:31:59;30.02;;;27.10;;
76731;SDS011;65656;51.130;13.658;2023-06-22T22:36:00;31.35;;;28.27;;
76731;SDS011;65656;51.130;13.658;2023-06-22T22:40:02;30.98;;;28.17;;
76731;SDS011;65656;51.130;13.658;2023-06-22T22:44:04;28.60;;;25.85;;
76731;SDS011;65656;51.130;13.658;2023-06-22T22:48:08;21.52;;;19.63;;
76731;SDS011;65656;51.130;13.658;2023-06-22T22:52:10;20.50;;;18.60;;
76731;SDS011;65656;51.130;13.658;2023-06-22T22:56:12;17.65;;;16.05;;
76731;SDS011;65656;51.130;13.658;2023-06-22T23:00:14;14.13;;;12.70;;
76731;SDS011;65656;51.130;13.658;2023-06-22T23:04:17;10.40;;;9.40;;
76731;SDS011;65656;51.130;13.658;2023-06-22T23:08:19;11.00;;;9.90;;
76731;SDS011;65656;51.130;13.658;2023-06-22T23:12:20;12.80;;;11.90;;
76731;SDS011;65656;51.130;13.658;2023-06-22T23:16:22;13.18;;;12.13;;
76731;SDS011;65656;51.130;13.658;2023-06-22T23:20:25;15.63;;;11.43;;